createdAt,value
2023-03-21T00:01:05.127Z,5.15
2023-03-21T00:03:38.134Z,6.10
2023-03-21T00:06:13.323Z,7.22
2023-03-21T00:08:45.806Z,6.72
2023-03-21T00:11:18.850Z,7.40
2023-03-21T00:13:53.930Z,7.18
2023-03-21T00:16:31.446Z,7.13
2023-03-21T00:19:06.494Z,7.25
2023-03-21T00:21:59.639Z,6.07
2023-03-21T00:24:35.969Z,5.72
2023-03-21T00:27:45.194Z,5.85
2023-03-21T00:30:01.336Z,6.03
2023-03-21T00:32:39.731Z,5.60
2023-03-21T00:35:51.663Z,5.50
2023-03-21T00:38:08.320Z,5.22
2023-03-21T00:40:48.743Z,5.80
2023-03-21T00:43:30.196Z,5.43
2023-03-21T00:46:03.095Z,4.80
2023-03-21T00:48:36.294Z,5.43
2023-03-21T00:51:21.554Z,4.90
2023-03-21T00:53:56.733Z,4.63
2023-03-21T00:56:29.215Z,4.28
2023-03-21T00:59:02.036Z,4.82
2023-03-21T01:01:35.043Z,3.35
2023-03-21T01:04:13.577Z,3.25
2023-03-21T01:06:46.102Z,3.63
2023-03-21T01:09:21.980Z,3.25
2023-03-21T01:11:54.501Z,2.10
2023-03-21T01:14:27.256Z,3.05
2023-03-21T01:16:59.792Z,2.90
2023-03-21T01:19:48.690Z,3.55
2023-03-21T01:22:24.448Z,3.38
2023-03-21T01:25:05.888Z,3.30
2023-03-21T01:27:44.751Z,3.05
2023-03-21T01:30:23.807Z,2.55
2023-03-21T01:32:56.526Z,2.20
2023-03-21T01:35:32.098Z,3.47
2023-03-21T01:38:10.500Z,3.17
2023-03-21T01:40:45.800Z,3.83
2023-03-21T01:43:25.735Z,3.78
2023-03-21T01:46:21.413Z,1.80
2023-03-21T01:49:07.083Z,3.80
2023-03-21T01:51:46.092Z,4.07
2023-03-21T01:54:25.549Z,4.78
2023-03-21T01:57:01.042Z,3.92
2023-03-21T01:59:50.358Z,3.85
2023-03-21T02:02:27.195Z,3.58
2023-03-21T02:05:03.911Z,4.20
2023-03-21T02:07:37.257Z,3.22
2023-03-21T02:10:12.356Z,4.05
2023-03-21T02:12:45.726Z,3.95
2023-03-21T02:15:18.296Z,3.15
2023-03-21T02:18:14.366Z,4.40
2023-03-21T02:21:06.973Z,3.40
2023-03-21T02:23:51.946Z,3.63
2023-03-21T02:27:03.544Z,4.20
2023-03-21T02:30:13.060Z,3.90
2023-03-21T02:32:55.703Z,3.78
2023-03-21T02:35:53.680Z,3.45
2023-03-21T02:38:37.747Z,4.80
2023-03-21T02:41:20.049Z,3.80
2023-03-21T02:44:07.576Z,3.67
2023-03-21T02:46:45.451Z,4.00
2023-03-21T02:49:40.266Z,4.57
2023-03-21T02:52:31.704Z,5.85
2023-03-21T02:55:15.572Z,5.18
2023-03-21T02:57:51.092Z,4.75
2023-03-21T03:00:27.504Z,5.25
2023-03-21T03:03:09.628Z,7.05
2023-03-21T03:06:04.135Z,6.10
2023-03-21T03:08:59.800Z,6.00
2023-03-21T03:11:35.832Z,5.35
2023-03-21T03:14:46.937Z,6.95
2023-03-21T03:17:17.280Z,5.72
2023-03-21T03:20:17.095Z,5.88
2023-03-21T03:23:10.970Z,6.70
2023-03-21T03:25:56.045Z,6.25
2023-03-21T03:28:34.356Z,5.78
2023-03-21T03:31:10.321Z,4.38
2023-03-21T03:33:47.003Z,5.95
2023-03-21T03:36:31.479Z,5.28
2023-03-21T03:39:09.164Z,3.88
2023-03-21T03:42:21.698Z,6.18
2023-03-21T03:44:45.848Z,5.82
2023-03-21T03:47:56.700Z,5.95
2023-03-21T03:50:49.952Z,7.10
2023-03-21T03:53:28.538Z,6.85
2023-03-21T03:56:01.583Z,6.07
2023-03-21T03:58:44.916Z,3.85
2023-03-21T04:01:18.450Z,7.15
2023-03-21T04:04:00.830Z,7.22
2023-03-21T04:06:39.748Z,6.03
2023-03-21T04:09:20.645Z,7.78
2023-03-21T04:11:54.894Z,6.75
2023-03-21T04:14:35.573Z,6.30
2023-03-21T04:17:15.816Z,7.28
2023-03-21T04:19:55.519Z,7.13
2023-03-21T04:22:31.660Z,8.10
2023-03-21T04:25:05.385Z,6.60
2023-03-21T04:27:37.889Z,8.05
2023-03-21T04:30:12.216Z,9.10
2023-03-21T04:32:44.697Z,9.18
2023-03-21T04:35:17.485Z,7.80
2023-03-21T04:37:50.403Z,8.80
2023-03-21T04:40:25.238Z,10.43
2023-03-21T04:42:57.894Z,9.77
2023-03-21T04:45:30.979Z,10.20
2023-03-21T04:48:04.429Z,8.65
2023-03-21T04:50:37.445Z,9.57
2023-03-21T04:53:10.223Z,10.73
2023-03-21T04:55:42.950Z,10.57
2023-03-21T04:58:16.223Z,6.28
2023-03-21T05:00:49.490Z,9.85
2023-03-21T05:03:22.088Z,7.85
2023-03-21T05:05:54.865Z,10.85
2023-03-21T05:08:28.594Z,4.30
2023-03-21T05:11:01.758Z,10.68
2023-03-21T05:13:34.269Z,11.85
2023-03-21T05:16:07.756Z,9.18
2023-03-21T05:18:40.313Z,12.57
2023-03-21T05:21:13.527Z,8.48
2023-03-21T05:23:46.073Z,9.73
2023-03-21T05:26:19.064Z,11.52
2023-03-21T05:28:51.577Z,10.90
2023-03-21T05:31:24.624Z,13.75
2023-03-21T05:33:57.138Z,11.73
2023-03-21T05:36:30.179Z,13.07
2023-03-21T05:39:03.643Z,9.13
2023-03-21T05:41:36.401Z,10.20
2023-03-21T05:44:08.956Z,13.43
2023-03-21T05:46:43.399Z,12.27
2023-03-21T05:49:15.979Z,14.38
2023-03-21T05:51:51.062Z,13.20
2023-03-21T05:54:23.667Z,10.10
2023-03-21T05:56:56.511Z,8.48
2023-03-21T05:59:29.088Z,10.75
2023-03-21T06:02:01.965Z,13.57
2023-03-21T06:04:34.465Z,13.70
2023-03-21T06:07:07.268Z,11.40
2023-03-21T06:09:39.844Z,12.98
2023-03-21T06:12:14.237Z,13.98
2023-03-21T06:14:47.147Z,12.65
2023-03-21T06:17:23.228Z,14.18
2023-03-21T06:19:55.877Z,10.65
2023-03-21T06:22:28.942Z,12.85
2023-03-21T06:25:01.951Z,12.27
2023-03-21T06:27:35.516Z,13.07
2023-03-21T06:30:09.136Z,10.18
2023-03-21T06:32:41.981Z,13.52
2023-03-21T06:35:14.532Z,10.85
2023-03-21T06:37:49.422Z,13.07
2023-03-21T06:40:21.975Z,11.77
2023-03-21T06:42:54.972Z,11.00
2023-03-21T06:45:27.476Z,12.45
2023-03-21T06:48:00.731Z,8.88
2023-03-21T06:50:33.293Z,12.32
2023-03-21T06:53:06.354Z,10.25
2023-03-21T06:55:39.080Z,8.88
2023-03-21T06:58:12.172Z,12.57
2023-03-21T07:00:45.063Z,7.25
2023-03-21T07:03:19.282Z,8.90
2023-03-21T07:05:51.904Z,9.60
2023-03-21T07:08:24.695Z,6.97
2023-03-21T07:10:59.809Z,10.68
2023-03-21T07:13:32.826Z,10.32
2023-03-21T07:16:06.111Z,10.40
2023-03-21T07:18:38.894Z,9.70
2023-03-21T07:21:11.477Z,9.38
2023-03-21T07:23:44.399Z,8.73
2023-03-21T07:26:18.462Z,10.07
2023-03-21T07:28:51.290Z,7.63
2023-03-21T07:31:27.186Z,9.43
2023-03-21T07:33:59.969Z,8.82
2023-03-21T07:36:32.526Z,8.70
2023-03-21T07:39:05.496Z,9.20
2023-03-21T07:41:38.001Z,7.43
2023-03-21T07:44:10.777Z,6.22
2023-03-21T07:46:43.320Z,8.63
2023-03-21T07:49:16.194Z,8.80
2023-03-21T07:51:48.659Z,7.75
2023-03-21T07:54:23.114Z,6.30
2023-03-21T07:56:56.878Z,7.43
2023-03-21T07:59:29.765Z,5.32
2023-03-21T08:02:02.260Z,7.07
2023-03-21T08:04:35.616Z,7.32
2023-03-21T08:07:08.666Z,6.10
2023-03-21T08:09:42.980Z,6.78
2023-03-21T08:12:15.474Z,4.95
2023-03-21T08:14:48.311Z,5.47
2023-03-21T08:17:21.042Z,4.63
2023-03-21T08:19:53.825Z,4.25
2023-03-21T08:22:26.500Z,3.55
2023-03-21T08:24:59.313Z,4.90
2023-03-21T08:27:32.862Z,5.30
2023-03-21T08:30:06.651Z,5.22
2023-03-21T08:32:40.019Z,3.72
2023-03-21T08:35:15.995Z,3.08
2023-03-21T08:37:48.879Z,4.20
2023-03-21T08:40:21.775Z,3.90
2023-03-21T08:42:54.604Z,5.20
2023-03-21T08:45:27.577Z,4.75
2023-03-21T08:48:00.353Z,3.15
2023-03-21T08:50:33.146Z,3.33
2023-03-21T08:53:05.877Z,3.97
2023-03-21T08:55:39.018Z,3.28
2023-03-21T08:58:11.609Z,3.85
2023-03-21T09:00:44.357Z,3.22
2023-03-21T09:03:16.995Z,2.97
2023-03-21T09:05:50.262Z,2.42
2023-03-21T09:08:23.517Z,2.50
2023-03-21T09:10:56.786Z,1.98
2023-03-21T09:13:29.277Z,1.90
2023-03-21T09:16:02.738Z,2.22
2023-03-21T09:18:48.984Z,2.42
2023-03-21T09:21:23.212Z,2.60
2023-03-21T09:23:58.511Z,1.73
2023-03-21T09:26:31.542Z,2.10
2023-03-21T09:29:06.093Z,2.25
2023-03-21T09:31:40.068Z,2.35
2023-03-21T09:34:15.351Z,1.20
2023-03-21T09:36:56.587Z,2.17
2023-03-21T09:39:29.246Z,1.70
2023-03-21T09:42:24.901Z,2.25
2023-03-21T09:45:06.373Z,1.50
2023-03-21T09:47:53.486Z,1.30
2023-03-21T09:50:33.569Z,1.73
2023-03-21T09:55:45.748Z,1.98
2023-03-21T09:58:29.211Z,1.98
2023-03-21T10:01:22.439Z,1.30
2023-03-21T10:03:57.119Z,1.88
2023-03-21T10:06:30.690Z,1.95
2023-03-21T10:09:17.115Z,1.88
2023-03-21T10:11:54.225Z,1.08
2023-03-21T10:14:40.610Z,2.58
2023-03-21T10:17:33.806Z,2.28
2023-03-21T10:20:18.737Z,2.67
2023-03-21T10:22:54.140Z,2.10
2023-03-21T10:25:27.030Z,2.80
2023-03-21T10:28:01.670Z,2.92
2023-03-21T10:30:37.272Z,2.90
2023-03-21T10:33:15.737Z,4.18
2023-03-21T10:35:53.315Z,3.00
2023-03-21T10:38:27.264Z,3.28
2023-03-21T10:41:00.718Z,2.17
2023-03-21T10:43:37.798Z,3.35
2023-03-21T10:46:17.855Z,3.72
2023-03-21T10:48:54.310Z,2.45
2023-03-21T10:51:30.965Z,2.35
2023-03-21T10:54:12.983Z,2.80
2023-03-21T10:56:55.524Z,2.88
2023-03-21T10:59:35.419Z,2.75
2023-03-21T11:04:49.059Z,2.67
2023-03-21T11:07:25.414Z,2.13
2023-03-21T11:10:00.906Z,2.30
2023-03-21T11:12:38.340Z,2.67
2023-03-21T11:15:30.897Z,2.38
2023-03-21T11:18:19.767Z,1.92
2023-03-21T11:20:58.803Z,1.52
2023-03-21T11:23:35.692Z,2.80
2023-03-21T11:26:17.590Z,2.53
2023-03-21T11:28:54.026Z,2.70
2023-03-21T11:31:42.182Z,2.30
2023-03-21T11:34:46.593Z,2.38
2023-03-21T11:37:33.125Z,1.90
2023-03-21T11:40:28.560Z,2.53
2023-03-21T11:43:03.689Z,2.10
2023-03-21T11:45:38.893Z,2.35
2023-03-21T11:48:14.885Z,2.08
2023-03-21T11:50:50.689Z,2.30
2023-03-21T11:53:46.626Z,2.63
2023-03-21T11:56:33.701Z,1.90
2023-03-21T11:59:19.189Z,1.77
2023-03-21T12:01:57.288Z,1.55
2023-03-21T12:04:52.865Z,1.65
2023-03-21T12:07:26.516Z,1.77
2023-03-21T12:10:01.894Z,2.05
2023-03-21T12:13:04.354Z,2.00
2023-03-21T12:15:40.121Z,1.73
2023-03-21T12:18:27.918Z,1.92
2023-03-21T12:21:25.026Z,1.38
2023-03-21T12:24:21.164Z,1.75
2023-03-21T12:27:18.537Z,2.30
2023-03-21T12:30:15.090Z,2.30
2023-03-21T12:33:14.887Z,2.47
2023-03-21T12:36:17.734Z,2.25
2023-03-21T12:39:08.883Z,2.65
2023-03-21T12:41:45.832Z,2.17
2023-03-21T12:44:23.652Z,2.17
2023-03-21T12:47:16.845Z,2.17
2023-03-21T12:49:56.487Z,2.30
2023-03-21T12:52:31.513Z,2.38
2023-03-21T12:55:34.948Z,2.53
2023-03-21T12:58:19.477Z,2.15
2023-03-21T13:00:55.769Z,2.05
2023-03-21T13:03:40.472Z,1.45
2023-03-21T13:06:18.558Z,1.65
2023-03-21T13:09:18.103Z,2.00
2023-03-21T13:11:58.176Z,2.60
2023-03-21T13:14:38.346Z,2.08
2023-03-21T13:17:30.736Z,2.28
2023-03-21T13:20:33.784Z,1.70
2023-03-21T13:23:08.511Z,2.40
2023-03-21T13:25:52.465Z,2.53
2023-03-21T13:28:31.326Z,2.15
2023-03-21T13:31:26.470Z,2.22
2023-03-21T13:34:00.073Z,1.90
2023-03-21T13:36:38.423Z,1.65
2023-03-21T13:39:20.909Z,2.15
2023-03-21T13:41:54.810Z,2.20
2023-03-21T13:44:53.092Z,1.58
2023-03-21T13:47:36.387Z,1.60
2023-03-21T13:50:14.642Z,1.88
2023-03-21T13:53:19.378Z,1.70
2023-03-21T13:56:14.585Z,1.42
2023-03-21T13:58:47.547Z,1.52
2023-03-21T14:01:28.680Z,1.60
2023-03-21T14:04:13.175Z,1.77
2023-03-21T14:07:01.946Z,1.65
2023-03-21T14:09:46.557Z,1.85
2023-03-21T14:12:24.762Z,1.90
2023-03-21T14:15:22.596Z,1.50
2023-03-21T14:17:57.680Z,1.60
2023-03-21T14:20:33.944Z,1.23
2023-03-21T14:23:07.714Z,1.40
2023-03-21T14:25:47.578Z,1.50
2023-03-21T14:28:26.293Z,1.48
2023-03-21T14:31:01.007Z,1.77
2023-03-21T14:33:41.602Z,1.90
2023-03-21T14:36:19.153Z,1.90
2023-03-21T14:39:04.813Z,1.80
2023-03-21T14:41:49.464Z,1.65
2023-03-21T14:44:35.941Z,1.55
2023-03-21T14:47:25.615Z,1.58
2023-03-21T14:50:01.101Z,1.35
2023-03-21T14:52:34.766Z,1.45
2023-03-21T14:55:16.318Z,1.35
2023-03-21T14:57:49.447Z,1.42
2023-03-21T15:00:29.465Z,1.38
2023-03-21T15:03:03.288Z,1.30
2023-03-21T15:05:38.693Z,1.70
2023-03-21T15:08:12.145Z,1.70
2023-03-21T15:11:14.164Z,1.95
2023-03-21T15:13:54.928Z,3.63
2023-03-21T15:16:27.925Z,3.13
2023-03-21T15:19:02.388Z,2.85
2023-03-21T15:21:43.057Z,1.92
2023-03-21T15:24:27.133Z,1.90
2023-03-21T15:27:03.876Z,4.38
2023-03-21T15:29:37.104Z,3.75
2023-03-21T15:32:22.930Z,1.83
2023-03-21T15:35:04.656Z,1.90
2023-03-21T15:37:38.257Z,2.00
2023-03-21T15:40:23.707Z,1.67
2023-03-21T15:43:13.650Z,2.72
2023-03-21T15:48:34.102Z,2.63
2023-03-21T15:51:12.078Z,2.75
2023-03-21T15:53:44.720Z,2.90
2023-03-21T15:56:17.690Z,2.47
2023-03-21T15:58:52.877Z,2.28
2023-03-21T16:01:26.589Z,1.75
2023-03-21T16:04:07.124Z,1.80
2023-03-21T16:06:59.292Z,1.67
2023-03-21T16:09:42.766Z,2.00
2023-03-21T16:12:18.367Z,1.75
2023-03-21T16:14:51.387Z,2.47
2023-03-21T16:17:33.045Z,2.05
2023-03-21T16:20:26.843Z,2.55
2023-03-21T16:22:59.755Z,2.63
2023-03-21T16:25:33.388Z,2.38
2023-03-21T16:28:17.247Z,3.10
2023-03-21T16:30:49.797Z,2.78
2023-03-21T16:33:25.485Z,3.08
2023-03-21T16:35:58.063Z,2.40
2023-03-21T16:38:31.400Z,2.50
2023-03-21T16:41:05.808Z,2.58
2023-03-21T16:43:43.315Z,2.22
2023-03-21T16:46:19.224Z,2.72
2023-03-21T16:48:57.881Z,3.60
2023-03-21T16:51:36.529Z,4.57
2023-03-21T16:54:09.318Z,4.32
2023-03-21T16:56:54.211Z,4.63
2023-03-21T16:59:27.468Z,3.60
2023-03-21T17:02:00.751Z,3.50
2023-03-21T17:04:33.619Z,3.03
2023-03-21T17:07:09.658Z,3.67
2023-03-21T17:09:47.315Z,3.97
2023-03-21T17:12:19.788Z,3.42
2023-03-21T17:14:54.211Z,2.95
2023-03-21T17:17:26.701Z,3.33
2023-03-21T17:19:59.766Z,3.53
2023-03-21T17:22:32.267Z,3.90
2023-03-21T17:25:05.438Z,3.30
2023-03-21T17:27:38.533Z,2.97
2023-03-21T17:30:27.725Z,3.25
2023-03-21T17:33:00.764Z,3.92
2023-03-21T17:35:33.718Z,3.40
2023-03-21T17:38:10.691Z,3.95
2023-03-21T17:40:43.626Z,3.50
2023-03-21T17:43:19.658Z,3.38
2023-03-21T17:45:52.619Z,3.50
2023-03-21T17:48:25.313Z,3.83
2023-03-21T17:50:58.184Z,3.65
2023-03-21T17:53:30.835Z,3.30
2023-03-21T17:56:03.695Z,3.90
2023-03-21T17:58:36.191Z,5.22
2023-03-21T18:01:09.173Z,3.83
2023-03-21T18:03:41.662Z,4.80
2023-03-21T18:06:20.480Z,4.38
2023-03-21T18:08:54.069Z,4.80
2023-03-21T18:11:28.690Z,5.30
2023-03-21T18:14:15.450Z,5.07
2023-03-21T18:16:50.795Z,6.18
2023-03-21T18:19:23.495Z,6.47
2023-03-21T18:21:56.663Z,6.95
2023-03-21T18:24:29.537Z,7.65
2023-03-21T18:27:04.820Z,8.00
2023-03-21T18:32:30.824Z,8.98
2023-03-21T18:35:05.716Z,9.50
2023-03-21T18:37:38.813Z,9.23
2023-03-21T18:40:12.150Z,10.50
2023-03-21T18:43:41.405Z,12.85
2023-03-21T18:45:37.885Z,11.75
2023-03-21T18:48:13.222Z,12.48
2023-03-21T18:50:46.068Z,13.50
2023-03-21T18:53:19.016Z,12.90
2023-03-21T18:55:56.059Z,11.98
2023-03-21T18:58:29.456Z,11.07
2023-03-21T19:01:04.729Z,12.02
2023-03-21T19:03:38.151Z,12.57
2023-03-21T19:06:11.703Z,13.40
2023-03-21T19:08:44.463Z,14.77
2023-03-21T19:11:21.250Z,11.13
2023-03-21T19:13:54.365Z,12.25
2023-03-21T19:16:31.523Z,12.48
2023-03-21T19:19:11.284Z,11.52
2023-03-21T19:21:44.076Z,11.75
2023-03-21T19:24:27.607Z,11.77
2023-03-21T19:27:00.985Z,11.77
2023-03-21T19:29:33.992Z,10.88
2023-03-21T19:32:07.629Z,11.05
2023-03-21T19:34:40.829Z,12.40
2023-03-21T19:37:13.303Z,12.10
2023-03-21T19:39:46.842Z,11.85
2023-03-21T19:42:19.329Z,11.20
2023-03-21T19:44:52.098Z,11.73
2023-03-21T19:47:24.608Z,10.63
2023-03-21T19:52:49.943Z,12.07
2023-03-21T19:55:23.462Z,11.57
2023-03-21T19:57:56.215Z,13.82
2023-03-21T20:00:29.377Z,12.30
2023-03-21T20:03:02.689Z,14.45
2023-03-21T20:05:35.967Z,16.40
2023-03-21T20:08:10.979Z,19.17
2023-03-21T20:10:46.919Z,17.20
2023-03-21T20:13:19.845Z,18.35
2023-03-21T20:16:05.227Z,20.35
2023-03-21T20:18:38.259Z,20.38
2023-03-21T20:24:17.765Z,21.08
2023-03-21T20:26:53.649Z,22.52
2023-03-21T20:32:19.754Z,23.02
2023-03-21T20:35:02.661Z,24.05
2023-03-21T20:37:51.155Z,25.33
2023-03-21T20:40:24.247Z,27.50
2023-03-21T20:43:00.218Z,26.83
2023-03-21T20:45:35.365Z,28.45
2023-03-21T20:48:08.162Z,30.27
2023-03-21T20:50:41.065Z,29.48
2023-03-21T20:53:14.149Z,28.52
2023-03-21T20:55:51.921Z,29.02
2023-03-21T20:58:53.644Z,29.33
2023-03-21T21:01:17.289Z,29.08
2023-03-21T21:03:50.475Z,30.65
2023-03-21T21:06:23.008Z,29.55
2023-03-21T21:08:56.324Z,29.05
2023-03-21T21:14:21.683Z,28.30
2023-03-21T21:16:54.659Z,28.75
2023-03-21T21:19:27.688Z,26.98
2023-03-21T21:22:02.763Z,24.38
2023-03-21T21:24:35.710Z,24.42
2023-03-21T21:27:08.491Z,23.83
2023-03-21T21:29:43.466Z,26.90
2023-03-21T21:32:18.422Z,24.52
2023-03-21T21:34:51.252Z,26.27
2023-03-21T21:37:25.021Z,26.58
2023-03-21T21:39:57.857Z,26.20
2023-03-21T21:42:30.418Z,25.15
2023-03-21T21:45:03.331Z,24.35
2023-03-21T21:47:38.769Z,23.75
2023-03-21T21:50:12.100Z,23.00
2023-03-21T21:52:52.699Z,22.73
2023-03-21T21:55:25.764Z,22.77
2023-03-21T21:57:58.284Z,22.83
2023-03-21T22:00:32.834Z,21.88
2023-03-21T22:03:06.144Z,22.55
2023-03-21T22:05:38.943Z,23.60
2023-03-21T22:08:12.232Z,21.83
2023-03-21T22:10:46.827Z,23.45
2023-03-21T22:13:19.319Z,21.20
2023-03-21T22:15:52.232Z,21.85
2023-03-21T22:18:24.778Z,23.25
2023-03-21T22:20:57.546Z,22.17
2023-03-21T22:23:30.131Z,22.83
2023-03-21T22:26:03.277Z,21.70
2023-03-21T22:28:36.365Z,20.50
2023-03-21T22:31:15.663Z,21.08
2023-03-21T22:33:48.796Z,19.67
2023-03-21T22:36:21.581Z,20.88
2023-03-21T22:38:54.082Z,20.80
2023-03-21T22:41:27.316Z,20.23
2023-03-21T22:43:59.826Z,20.85
2023-03-21T22:46:33.601Z,20.80
2023-03-21T22:49:06.506Z,21.40
2023-03-21T22:51:39.318Z,20.35
2023-03-21T22:54:11.891Z,19.60
2023-03-21T22:56:44.664Z,19.92
2023-03-21T22:59:17.266Z,19.70
2023-03-21T23:01:50.432Z,20.48
2023-03-21T23:04:23.957Z,20.88
2023-03-21T23:06:56.827Z,20.02
2023-03-21T23:09:29.542Z,22.33
2023-03-21T23:12:02.364Z,20.48
2023-03-21T23:14:34.925Z,21.30
2023-03-21T23:17:10.140Z,20.70
2023-03-21T23:19:42.844Z,20.75
2023-03-21T23:22:15.662Z,21.80
2023-03-21T23:24:49.091Z,22.17
2023-03-21T23:27:23.534Z,22.23
2023-03-21T23:29:56.975Z,21.73
2023-03-21T23:32:31.049Z,22.75
2023-03-21T23:35:04.264Z,20.45
2023-03-21T23:37:37.391Z,22.25
2023-03-21T23:40:10.404Z,23.33
2023-03-21T23:42:43.195Z,23.42
2023-03-21T23:45:15.723Z,21.15
2023-03-21T23:47:48.786Z,21.08
2023-03-21T23:50:21.352Z,21.48
2023-03-21T23:52:54.134Z,22.20
2023-03-21T23:55:26.622Z,21.77
2023-03-21T23:57:59.620Z,22.20
